Time;durP1;ratioP1;P1;durP2;ratioP2;P2;SDS_P1;SDS_P2;PMS_P1;PMS_P2;Temp;Humidity;BMP_temperature;BMP_pressure;BME280_temperature;BME280_humidity;BME280_pressure;Samples;Min_cycle;Max_cycle;Signal;HPM_P1;HPM_P2
2023/11/01 00:01:38;;;;;;;23.40;13.63;;;;;;;10.97;78.46;99054.75;5115699;27;20109;-59
2023/11/01 00:04:04;;;;;;;20.58;12.65;;;;;;;10.99;78.79;99052.75;5115988;28;20027;-58
2023/11/01 00:06:29;;;;;;;18.13;12.65;;;;;;;10.97;78.70;99046.72;5115998;28;20323;-60
2023/11/01 00:08:56;;;;;;;24.73;12.25;;;;;;;10.97;78.56;99052.06;5115637;28;20039;-60
2023/11/01 00:11:22;;;;;;;24.27;13.75;;;;;;;10.93;78.50;99041.78;5115480;28;20046;-54
2023/11/01 00:13:48;;;;;;;20.27;13.27;;;;;;;10.97;78.55;99030.66;5114549;28;20426;-59
2023/11/01 00:16:13;;;;;;;17.08;12.55;;;;;;;10.95;78.62;99037.97;5115766;28;20032;-54
2023/11/01 00:18:39;;;;;;;23.60;13.63;;;;;;;10.86;78.76;99004.06;5115270;28;20019;-59
2023/11/01 00:21:04;;;;;;;22.85;13.55;;;;;;;10.86;78.62;99012.09;5115441;28;20054;-53
2023/11/01 00:23:30;;;;;;;19.40;13.65;;;;;;;10.80;78.49;98999.25;5115666;28;20030;-58
2023/11/01 00:25:56;;;;;;;21.92;13.68;;;;;;;10.92;79.22;99011.50;5115227;28;20047;-58
2023/11/01 00:28:22;;;;;;;18.02;13.18;;;;;;;10.92;78.87;99011.50;5115262;28;20035;-57
2023/11/01 00:30:47;;;;;;;23.08;12.68;;;;;;;10.93;79.03;98998.94;5114633;28;20340;-53
2023/11/01 00:33:13;;;;;;;21.90;12.63;;;;;;;10.95;79.14;99004.97;5115717;28;20132;-57
2023/11/01 00:35:38;;;;;;;20.73;12.73;;;;;;;10.99;78.85;98995.69;5114609;28;20039;-60
2023/11/01 00:38:07;;;;;;;22.65;12.93;;;;;;;11.03;78.99;99000.59;5115212;28;20039;-55
2023/11/01 00:40:32;;;;;;;19.10;12.07;;;;;;;11.04;78.75;98996.91;5115477;28;20093;-59
2023/11/01 00:42:58;;;;;;;18.83;12.65;;;;;;;11.03;78.88;98987.19;5115346;28;20116;-59
2023/11/01 00:45:23;;;;;;;18.52;12.80;;;;;;;11.08;78.85;98986.75;5115191;28;20027;-61
2023/11/01 00:47:49;;;;;;;24.88;13.35;;;;;;;11.19;77.85;98988.41;5115423;28;20059;-59
2023/11/01 00:50:15;;;;;;;23.35;12.80;;;;;;;11.11;78.22;98983.78;5115037;28;20458;-56
2023/11/01 00:52:40;;;;;;;22.15;13.48;;;;;;;11.08;78.31;98981.41;5114965;28;20039;-57
2023/11/01 00:55:07;;;;;;;22.50;13.32;;;;;;;11.04;78.74;98980.00;5115121;28;20102;-57
2023/11/01 00:57:33;;;;;;;22.50;13.07;;;;;;;11.04;78.66;98993.41;5114888;28;20036;-59
2023/11/01 00:59:59;;;;;;;20.77;12.73;;;;;;;10.99;79.00;98980.44;5114980;28;20023;-54
2023/11/01 01:02:24;;;;;;;20.27;12.43;;;;;;;11.00;79.09;98976.78;5115437;28;20028;-58
2023/11/01 01:04:50;;;;;;;22.23;13.15;;;;;;;11.01;79.00;98969.59;5115052;28;20039;-56
2023/11/01 01:07:16;;;;;;;24.05;12.88;;;;;;;11.10;79.11;98965.19;5113605;28;20472;-57
2023/11/01 01:09:41;;;;;;;22.25;13.15;;;;;;;11.23;78.46;98981.75;5111062;28;20043;-56
2023/11/01 01:12:07;;;;;;;23.80;12.88;;;;;;;11.03;78.39;98943.50;5114541;28;20024;-58
2023/11/01 01:14:33;;;;;;;23.27;12.13;;;;;;;11.04;78.58;98939.84;5114779;28;20088;-58
2023/11/01 01:16:58;;;;;;;18.92;12.27;;;;;;;11.23;78.30;98975.56;5113992;27;20023;-56
2023/11/01 01:19:24;;;;;;;21.10;12.77;;;;;;;11.19;78.35;98959.75;5114693;28;20031;-56
2023/11/01 01:21:49;;;;;;;18.88;12.55;;;;;;;11.17;78.54;98963.59;5114646;28;20514;-58
2023/11/01 01:24:15;;;;;;;19.27;12.27;;;;;;;10.99;78.77;98934.91;5114170;28;20176;-56
2023/11/01 01:26:40;;;;;;;19.17;12.43;;;;;;;10.92;78.72;98925.81;5113384;28;20361;-57
2023/11/01 01:29:06;;;;;;;19.38;12.65;;;;;;;11.17;78.90;98971.63;5114277;28;20038;-57
2023/11/01 01:31:33;;;;;;;23.70;12.13;;;;;;;11.19;78.82;98961.63;5113122;28;20434;-57
2023/11/01 01:33:59;;;;;;;20.63;12.20;;;;;;;11.18;79.00;98962.59;5113236;28;20042;-56
2023/11/01 01:36:24;;;;;;;24.20;11.80;;;;;;;11.19;78.87;98958.94;5114733;28;20107;-56
2023/11/01 01:38:50;;;;;;;20.63;12.15;;;;;;;11.22;78.62;98953.28;5114211;28;20036;-59
2023/11/01 01:41:15;;;;;;;19.20;12.25;;;;;;;11.17;78.56;98950.19;5112988;28;20059;-59
2023/11/01 01:43:41;;;;;;;21.23;12.95;;;;;;;11.25;78.72;98946.78;5114011;28;20069;-55
2023/11/01 01:46:10;;;;;;;17.27;11.45;;;;;;;11.26;78.50;98938.56;5113492;28;20069;-57
2023/11/01 01:48:37;;;;;;;20.15;12.50;;;;;;;11.31;78.58;98941.63;5113590;28;20350;-59
2023/11/01 01:51:04;;;;;;;20.75;11.93;;;;;;;11.31;78.61;98947.00;5113218;28;20043;-57
2023/11/01 01:53:39;;;;;;;20.23;12.25;;;;;;;11.39;78.90;98938.22;5114422;28;20114;-59
2023/11/01 01:56:06;;;;;;;20.10;11.70;;;;;;;11.44;78.49;98948.50;5113605;28;20032;-58
2023/11/01 01:58:32;;;;;;;19.20;11.73;;;;;;;11.41;78.24;98935.41;5113164;28;20319;-59
2023/11/01 02:00:59;;;;;;;21.80;12.45;;;;;;;11.45;78.28;98926.91;5113830;28;20081;-57
2023/11/01 02:03:24;;;;;;;19.20;12.07;;;;;;;11.49;78.06;98916.69;5114095;28;20027;-58
2023/11/01 02:05:51;;;;;;;20.95;12.13;;;;;;;11.58;77.90;98926.53;5113588;28;20042;-59
2023/11/01 02:08:17;;;;;;;18.67;11.82;;;;;;;11.60;77.92;98919.19;5113765;28;20023;-58
2023/11/01 02:10:43;;;;;;;19.08;11.23;;;;;;;11.66;77.53;98927.59;5113607;27;20327;-59
2023/11/01 02:13:10;;;;;;;16.83;11.13;;;;;;;11.71;77.60;98933.34;5113021;28;20020;-54
2023/11/01 02:15:36;;;;;;;20.23;11.52;;;;;;;11.76;77.31;98931.03;5111998;28;20031;-57
2023/11/01 02:18:02;;;;;;;19.10;11.18;;;;;;;11.77;77.26;98919.31;5113875;28;20024;-59
2023/11/01 02:20:48;;;;;;;21.83;11.38;;;;;;;11.84;76.94;98928.44;5112418;28;20082;-55
2023/11/01 02:23:15;;;;;;;19.75;11.90;;;;;;;11.87;76.98;98920.09;5113205;27;20056;-56
2023/11/01 02:25:43;;;;;;;16.25;10.38;;;;;;;11.87;76.86;98917.41;5112674;28;20053;-57
2023/11/01 02:28:11;;;;;;;18.42;11.32;;;;;;;11.90;76.83;98908.19;5113268;28;20031;-57
2023/11/01 02:30:40;;;;;;;18.40;10.75;;;;;;;11.85;76.90;98897.09;5111553;28;20035;-59
2023/11/01 02:33:06;;;;;;;17.65;10.45;;;;;;;11.98;76.79;98899.38;5091237;28;20046;-55
2023/11/01 02:35:32;;;;;;;20.25;10.85;;;;;;;11.95;76.64;98894.31;5106174;28;20031;-56
2023/11/01 02:37:57;;;;;;;15.52;10.70;;;;;;;12.02;76.71;98901.63;5113038;28;20027;-57
2023/11/01 02:40:23;;;;;;;18.08;10.90;;;;;;;12.09;76.42;98896.47;5112321;28;20028;-58
2023/11/01 02:42:51;;;;;;;15.65;9.60;;;;;;;12.09;76.38;98901.84;5112774;28;20088;-60
2023/11/01 02:45:17;;;;;;;17.02;9.85;;;;;;;12.16;76.13;98900.22;5113269;28;20023;-57
2023/11/01 02:47:43;;;;;;;13.35;9.20;;;;;;;12.13;76.29;98899.66;5113431;28;20227;-59
2023/11/01 02:50:12;;;;;;;16.52;9.82;;;;;;;12.19;76.31;98901.75;5111501;28;20351;-61
2023/11/01 02:52:38;;;;;;;15.00;9.63;;;;;;;12.26;76.06;98896.56;5112629;28;20365;-59
2023/11/01 02:55:07;;;;;;;18.90;10.40;;;;;;;12.28;76.32;98897.25;5112803;28;20032;-57
2023/11/01 02:57:33;;;;;;;17.38;9.90;;;;;;;12.22;76.16;98895.22;5113413;28;20092;-58
2023/11/01 03:00:00;;;;;;;14.45;9.30;;;;;;;12.26;76.57;98904.63;5112967;28;20096;-58
2023/11/01 03:02:26;;;;;;;16.10;10.15;;;;;;;12.25;76.41;98908.31;5112549;28;20450;-58
2023/11/01 03:04:52;;;;;;;15.60;9.07;;;;;;;12.27;76.75;98909.00;5112592;28;20472;-58
2023/11/01 03:07:18;;;;;;;13.48;9.20;;;;;;;12.28;76.40;98910.66;5113017;28;20035;-56
2023/11/01 03:09:44;;;;;;;18.10;10.48;;;;;;;12.34;76.37;98902.84;5111582;28;20028;-58
2023/11/01 03:12:09;;;;;;;14.02;9.63;;;;;;;12.15;76.22;98862.78;5112330;28;20035;-62
2023/11/01 03:14:38;;;;;;;13.90;9.32;;;;;;;12.40;76.28;98895.16;5111855;28;20039;-59
2023/11/01 03:17:04;;;;;;;14.18;9.10;;;;;;;12.41;76.02;98899.50;5112903;28;20020;-59
2023/11/01 03:19:30;;;;;;;14.43;9.75;;;;;;;12.37;76.28;98900.84;5112926;28;20027;-60
2023/11/01 03:21:56;;;;;;;13.27;9.15;;;;;;;12.34;76.46;98889.41;5112593;28;20456;-60
2023/11/01 03:24:21;;;;;;;22.05;10.07;;;;;;;12.34;76.69;98893.97;5112660;28;20492;-57
2023/11/01 03:26:47;;;;;;;18.42;9.95;;;;;;;12.34;76.39;98888.59;5110549;28;20058;-55
2023/11/01 03:29:12;;;;;;;18.50;10.27;;;;;;;12.38;76.33;98903.38;5112383;28;20381;-59
2023/11/01 03:31:38;;;;;;;15.45;9.38;;;;;;;12.33;76.18;98893.09;5112510;28;20036;-58
2023/11/01 03:34:04;;;;;;;15.20;9.60;;;;;;;12.37;76.57;98890.09;5112625;28;20114;-54
2023/11/01 03:36:31;;;;;;;16.67;10.52;;;;;;;12.25;76.57;98884.16;5112800;28;20047;-56
2023/11/01 03:38:56;;;;;;;18.48;9.50;;;;;;;12.23;76.82;98887.00;5111959;28;20118;-56
2023/11/01 03:41:22;;;;;;;17.80;10.43;;;;;;;12.08;76.99;98856.38;5111244;28;20031;-61
2023/11/01 03:43:47;;;;;;;13.88;10.05;;;;;;;12.22;76.90;98865.69;5111653;28;20028;-59
2023/11/01 03:46:13;;;;;;;13.55;9.85;;;;;;;12.23;76.93;98860.19;5111741;28;20039;-57
2023/11/01 03:48:38;;;;;;;20.50;10.77;;;;;;;12.22;77.06;98860.31;5114387;28;20107;-58
2023/11/01 03:51:04;;;;;;;17.13;10.23;;;;;;;12.23;77.17;98880.78;5116034;28;20098;-58
2023/11/01 03:53:30;;;;;;;20.77;10.70;;;;;;;12.20;77.13;98866.69;5116010;28;20354;-56
2023/11/01 03:55:56;;;;;;;18.08;10.60;;;;;;;12.16;77.17;98854.59;5115891;28;20127;-59
2023/11/01 03:58:22;;;;;;;17.35;9.65;;;;;;;12.08;77.29;98838.47;5116159;28;20050;-57
2023/11/01 04:00:48;;;;;;;15.23;10.30;;;;;;;12.09;77.52;98848.19;5115423;28;20474;-58
2023/11/01 04:03:14;;;;;;;16.70;10.30;;;;;;;12.05;77.72;98841.44;5115917;28;20062;-60
2023/11/01 04:05:39;;;;;;;21.23;10.57;;;;;;;11.86;77.69;98813.81;5116018;28;20088;-57
2023/11/01 04:08:05;;;;;;;16.95;9.73;;;;;;;11.92;78.00;98837.31;5115834;28;20438;-54
2023/11/01 04:10:31;;;;;;;22.42;11.15;;;;;;;11.94;78.18;98830.94;5116184;28;20061;-55
2023/11/01 04:12:56;;;;;;;17.27;10.70;;;;;;;11.92;78.36;98831.94;5116206;28;20494;-53
2023/11/01 04:15:22;;;;;;;18.02;10.55;;;;;;;11.95;78.14;98838.00;5114162;28;20061;-56
2023/11/01 04:17:49;;;;;;;20.75;11.07;;;;;;;11.96;78.28;98837.00;5115534;28;20071;-58
2023/11/01 04:20:15;;;;;;;19.38;10.80;;;;;;;11.89;78.30;98840.31;5113937;28;20114;-56
2023/11/01 04:22:40;;;;;;;20.08;11.40;;;;;;;11.86;78.59;98837.09;5115846;28;20556;-57
2023/11/01 04:25:10;;;;;;;19.35;11.57;;;;;;;11.89;78.59;98842.13;5116019;28;20100;-58
2023/11/01 04:27:39;;;;;;;20.13;11.27;;;;;;;11.88;78.57;98838.63;5115787;28;20192;-59
2023/11/01 04:30:12;;;;;;;15.48;11.38;;;;;;;11.98;78.63;98835.84;5115849;28;20024;-59
2023/11/01 04:32:39;;;;;;;17.65;11.10;;;;;;;11.99;78.25;98836.66;5114192;28;20419;-55
2023/11/01 04:35:11;;;;;;;20.63;10.90;;;;;;;12.04;78.01;98843.28;5115723;28;20031;-57
2023/11/01 04:37:38;;;;;;;22.63;11.07;;;;;;;11.99;77.99;98836.66;5115151;28;20027;-56
2023/11/01 04:40:09;;;;;;;19.33;11.35;;;;;;;12.11;77.89;98835.44;5115015;28;20023;-58
2023/11/01 04:42:42;;;;;;;17.13;11.70;;;;;;;12.16;77.89;98833.13;5115811;28;20046;-60
2023/11/01 04:45:09;;;;;;;26.50;11.63;;;;;;;12.14;77.41;98837.81;5115200;28;20106;-61
2023/11/01 04:47:36;;;;;;;19.23;12.38;;;;;;;12.26;77.33;98842.91;5114806;28;20024;-59
2023/11/01 04:50:03;;;;;;;19.55;11.40;;;;;;;12.13;77.02;98817.34;5114885;28;20176;-59
2023/11/01 04:52:30;;;;;;;16.85;11.60;;;;;;;12.41;76.66;98843.13;5114592;28;20357;-54
2023/11/01 04:54:56;;;;;;;22.70;11.95;;;;;;;12.55;76.30;98849.78;5114899;28;20047;-57
2023/11/01 04:57:21;;;;;;;18.42;11.43;;;;;;;12.71;75.67;98844.47;5114987;28;20057;-58
2023/11/01 04:59:46;;;;;;;19.20;11.05;;;;;;;12.87;74.96;98840.97;5113915;28;20019;-59
2023/11/01 05:02:12;;;;;;;17.60;11.52;;;;;;;12.98;74.66;98844.38;5115076;28;20019;-56
2023/11/01 05:04:37;;;;;;;22.10;11.23;;;;;;;13.12;73.76;98838.34;5114884;28;20035;-56
2023/11/01 05:07:03;;;;;;;21.00;11.10;;;;;;;13.15;73.39;98813.88;5113995;28;20031;-58
2023/11/01 05:09:29;;;;;;;19.92;11.15;;;;;;;13.55;72.52;98850.88;5114755;28;20032;-56
2023/11/01 05:11:54;;;;;;;17.23;10.55;;;;;;;13.70;71.30;98818.78;5113546;28;20063;-57
2023/11/01 05:14:20;;;;;;;19.23;11.25;;;;;;;14.15;70.29;98848.84;5113194;28;20059;-58
2023/11/01 05:16:46;;;;;;;19.65;10.18;;;;;;;14.60;68.90;98836.59;5114447;28;20413;-59
2023/11/01 05:19:12;;;;;;;18.50;10.55;;;;;;;15.03;67.37;98846.19;5114499;28;20661;-60
2023/11/01 05:21:38;;;;;;;17.65;10.68;;;;;;;15.38;65.75;98843.09;5114445;28;20123;-57
2023/11/01 05:24:04;;;;;;;18.40;10.23;;;;;;;15.63;64.73;98828.41;5114004;28;20062;-58
2023/11/01 05:26:34;;;;;;;16.65;10.50;;;;;;;16.03;63.59;98846.31;5113849;28;20122;-57
2023/11/01 05:29:00;;;;;;;16.05;9.88;;;;;;;16.27;61.94;98811.97;5114168;28;20040;-60
2023/11/01 05:31:26;;;;;;;14.77;9.73;;;;;;;16.74;60.85;98834.22;5114138;28;20035;-59
2023/11/01 05:33:52;;;;;;;17.58;9.73;;;;;;;16.81;60.41;98847.81;5112625;28;20032;-57
2023/11/01 05:36:18;;;;;;;17.92;10.15;;;;;;;17.03;59.51;98816.31;5113164;28;20023;-54
2023/11/01 05:38:44;;;;;;;15.20;9.50;;;;;;;17.45;58.42;98830.88;5114024;28;20395;-55
2023/11/01 05:41:10;;;;;;;19.10;10.07;;;;;;;17.61;57.63;98827.09;5114105;28;20047;-56
2023/11/01 05:43:39;;;;;;;15.93;8.93;;;;;;;17.86;56.82;98837.50;5114515;28;20501;-58
2023/11/01 05:46:05;;;;;;;19.65;11.77;;;;;;;17.81;56.85;98842.66;5113947;28;20046;-55
2023/11/01 05:48:34;;;;;;;13.70;9.18;;;;;;;17.60;57.35;98847.06;5113419;28;20042;-58
2023/11/01 05:51:00;;;;;;;16.27;9.25;;;;;;;17.15;57.93;98813.94;5113166;27;20092;-58
2023/11/01 05:53:25;;;;;;;16.05;9.32;;;;;;;17.19;58.19;98828.75;5113619;28;20123;-59
2023/11/01 05:55:52;;;;;;;17.05;10.45;;;;;;;17.30;57.99;98838.22;5113223;28;20396;-56
2023/11/01 05:58:19;;;;;;;14.40;9.75;;;;;;;17.38;57.62;98848.09;5109384;28;20039;-57
2023/11/01 06:00:47;;;;;;;16.27;9.25;;;;;;;17.44;57.33;98847.31;5113073;27;20111;-57
2023/11/01 06:03:13;;;;;;;14.18;9.52;;;;;;;17.79;56.45;98844.72;5112894;28;20043;-56
2023/11/01 06:05:39;;;;;;;16.05;9.25;;;;;;;18.43;54.64;98832.09;5113186;28;20323;-56
2023/11/01 06:08:08;;;;;;;13.95;9.18;;;;;;;19.12;52.83;98840.34;5113100;28;20035;-59
2023/11/01 06:10:38;;;;;;;13.25;9.15;;;;;;;19.57;51.36;98828.13;5112817;28;20084;-55
2023/11/01 06:13:09;;;;;;;15.80;9.38;;;;;;;19.78;50.67;98840.69;5112635;28;20080;-60
2023/11/01 06:15:36;;;;;;;16.40;9.40;;;;;;;19.26;51.07;98814.06;5111881;28;20085;-54
2023/11/01 06:18:05;;;;;;;16.52;9.82;;;;;;;18.87;52.49;98846.25;5112522;28;20088;-59
2023/11/01 06:20:35;;;;;;;14.40;9.40;;;;;;;18.49;53.68;98847.53;5112410;28;20043;-58
2023/11/01 06:23:01;;;;;;;14.52;9.30;;;;;;;18.15;54.50;98840.22;5113112;28;20091;-60
2023/11/01 06:25:27;;;;;;;13.02;9.20;;;;;;;18.08;54.45;98826.63;5113584;28;20046;-59
2023/11/01 06:27:53;;;;;;;16.08;10.13;;;;;;;18.26;53.96;98838.84;5113365;28;20031;-58
2023/11/01 06:30:18;;;;;;;13.98;9.68;;;;;;;18.34;54.06;98846.84;5112857;28;20047;-58
2023/11/01 06:32:44;;;;;;;21.20;9.88;;;;;;;18.07;54.34;98838.50;5112713;27;20052;-58
2023/11/01 06:35:10;;;;;;;19.00;9.82;;;;;;;17.86;55.10;98840.22;5113562;28;20370;-59
2023/11/01 06:37:36;;;;;;;13.85;9.25;;;;;;;17.90;54.99;98837.94;5111636;28;20034;-57
2023/11/01 06:40:02;;;;;;;16.52;9.90;;;;;;;17.76;55.21;98839.69;5112690;28;20036;-57
2023/11/01 06:42:31;;;;;;;17.08;9.23;;;;;;;17.68;55.02;98804.66;5112290;28;20030;-57
2023/11/01 06:44:56;;;;;;;14.85;9.23;;;;;;;18.07;54.35;98841.22;5093155;28;20039;-60
2023/11/01 06:47:22;;;;;;;15.05;9.52;;;;;;;18.22;54.06;98823.00;5112299;28;20191;-62
2023/11/01 06:49:48;;;;;;;17.67;11.05;;;;;;;18.40;53.58;98839.78;5112474;28;20032;-58
2023/11/01 06:52:13;;;;;;;16.50;9.35;;;;;;;18.64;53.10;98827.63;5112649;28;20027;-57
2023/11/01 06:54:43;;;;;;;15.55;9.70;;;;;;;18.84;51.94;98829.59;5112654;28;20036;-53
2023/11/01 06:57:12;;;;;;;15.35;9.52;;;;;;;18.85;51.97;98842.09;5112819;28;20031;-56
2023/11/01 06:59:39;;;;;;;16.83;8.98;;;;;;;18.46;52.60;98818.13;5112184;28;20118;-53
2023/11/01 07:02:08;;;;;;;12.77;9.00;;;;;;;18.41;53.40;98836.88;5111480;28;20023;-54
2023/11/01 07:04:33;;;;;;;13.15;8.93;;;;;;;18.82;52.29;98842.50;5112025;28;20052;-51
2023/11/01 07:07:00;;;;;;;19.92;9.73;;;;;;;19.08;51.26;98837.22;5108206;28;20035;-53
2023/11/01 07:09:25;;;;;;;13.00;9.45;;;;;;;19.04;51.12;98841.34;5110890;28;20035;-50
2023/11/01 07:11:51;;;;;;;18.73;9.32;;;;;;;19.08;51.26;98842.63;5112100;28;20036;-56
2023/11/01 07:14:17;;;;;;;17.67;8.95;;;;;;;19.13;51.40;98824.91;5111571;28;20036;-56
2023/11/01 07:16:45;;;;;;;16.40;9.52;;;;;;;19.05;50.82;98840.34;5108987;28;20454;-58
2023/11/01 07:19:11;;;;;;;16.83;8.48;;;;;;;18.74;51.44;98825.34;5106994;28;20387;-58
2023/11/01 07:21:39;;;;;;;12.15;8.88;;;;;;;18.40;52.80;98840.63;5109489;28;20057;-60
2023/11/01 07:24:07;;;;;;;12.68;8.55;;;;;;;17.99;53.77;98838.63;5113058;28;20040;-55
2023/11/01 07:26:32;;;;;;;13.63;9.18;;;;;;;17.58;54.67;98832.88;5115361;28;20051;-58
2023/11/01 07:28:59;;;;;;;14.95;9.10;;;;;;;17.28;55.80;98835.72;5115566;28;20156;-57
2023/11/01 07:31:25;;;;;;;18.08;8.98;;;;;;;17.05;56.45;98839.41;5115718;28;20458;-60
2023/11/01 07:33:51;;;;;;;23.80;11.38;;;;;;;16.98;56.79;98849.31;5115426;28;20042;-60
2023/11/01 07:36:18;;;;;;;17.90;9.68;;;;;;;16.91;57.07;98832.16;5114658;28;20027;-60
2023/11/01 07:38:44;;;;;;;15.60;9.48;;;;;;;17.00;56.99;98835.59;5114658;28;20024;-57
2023/11/01 07:41:09;;;;;;;15.40;9.35;;;;;;;16.95;56.80;98825.34;5115238;28;20034;-61
2023/11/01 07:43:35;;;;;;;14.73;9.13;;;;;;;17.04;56.71;98834.22;5115328;27;20023;-61
2023/11/01 07:46:01;;;;;;;17.55;9.32;;;;;;;17.02;56.99;98836.28;5115758;28;20059;-56
2023/11/01 07:48:26;;;;;;;16.30;9.30;;;;;;;16.93;57.01;98838.22;5115973;28;20106;-60
2023/11/01 07:50:52;;;;;;;15.68;9.18;;;;;;;16.73;57.56;98822.56;5115350;28;20027;-55
2023/11/01 07:53:17;;;;;;;15.90;8.60;;;;;;;16.59;57.87;98818.03;5115579;28;20031;-58
2023/11/01 07:55:43;;;;;;;20.23;9.18;;;;;;;16.49;58.20;98823.72;5115260;28;20073;-57
2023/11/01 07:58:09;;;;;;;13.68;8.93;;;;;;;16.38;58.92;98832.28;5115397;28;20077;-49
2023/11/01 08:00:34;;;;;;;17.65;8.88;;;;;;;16.03;59.42;98797.72;5114074;28;20822;-52
2023/11/01 08:03:00;;;;;;;13.75;8.77;;;;;;;16.30;59.14;98838.63;5114703;28;20042;-50
2023/11/01 08:05:25;;;;;;;17.27;9.07;;;;;;;16.26;59.58;98840.03;5115712;28;20062;-58
2023/11/01 08:07:52;;;;;;;18.38;9.15;;;;;;;16.01;59.72;98811.41;5115041;28;20032;-59
2023/11/01 08:10:17;;;;;;;18.20;9.48;;;;;;;16.02;60.08;98834.66;5115170;28;20457;-55
2023/11/01 08:12:43;;;;;;;19.65;9.77;;;;;;;15.68;60.48;98794.66;5116057;28;20067;-58
2023/11/01 08:15:09;;;;;;;15.30;9.45;;;;;;;15.74;60.77;98834.41;5114240;28;20031;-59
2023/11/01 08:17:34;;;;;;;15.70;9.77;;;;;;;15.69;61.30;98837.66;5114518;28;20093;-56
2023/11/01 08:20:00;;;;;;;16.25;9.25;;;;;;;15.58;61.42;98828.13;5114219;28;20370;-56
2023/11/01 08:22:25;;;;;;;16.73;9.45;;;;;;;15.59;61.62;98845.97;5115062;28;20043;-57
2023/11/01 08:24:52;;;;;;;16.70;8.90;;;;;;;15.61;61.59;98835.84;5114956;28;20127;-56
2023/11/01 08:27:17;;;;;;;15.18;8.77;;;;;;;15.67;61.60;98834.28;5114828;28;20036;-55
2023/11/01 08:29:43;;;;;;;17.40;9.90;;;;;;;15.70;61.65;98838.50;5111963;28;20495;-55
2023/11/01 08:32:09;;;;;;;19.73;9.60;;;;;;;15.52;61.33;98795.63;5113925;28;20035;-56
2023/11/01 08:34:35;;;;;;;15.43;8.90;;;;;;;15.89;61.01;98837.16;5113875;28;20059;-59
2023/11/01 08:37:01;;;;;;;19.17;8.85;;;;;;;15.99;60.67;98813.44;5113408;28;20500;-58
2023/11/01 08:39:27;;;;;;;17.92;8.98;;;;;;;16.09;60.19;98818.56;5113796;28;20114;-56
2023/11/01 08:41:53;;;;;;;16.38;9.15;;;;;;;16.17;60.08;98821.22;5114809;28;20035;-56
2023/11/01 08:44:18;;;;;;;18.50;10.13;;;;;;;16.27;60.03;98829.00;5114123;28;20104;-55
2023/11/01 08:46:45;;;;;;;17.05;9.32;;;;;;;16.41;59.47;98830.06;5114725;28;20027;-52
2023/11/01 08:49:11;;;;;;;13.48;8.95;;;;;;;16.48;59.44;98822.88;5114379;28;20032;-56
2023/11/01 08:51:39;;;;;;;16.77;8.95;;;;;;;16.60;59.08;98817.00;5114090;28;20142;-58
2023/11/01 08:54:05;;;;;;;18.38;9.05;;;;;;;16.73;58.34;98819.88;5113659;28;20031;-56
2023/11/01 08:56:30;;;;;;;17.27;9.65;;;;;;;16.78;58.58;98817.44;5104972;28;20350;-59
2023/11/01 08:58:56;;;;;;;16.40;9.38;;;;;;;16.86;58.35;98811.09;5114291;28;20036;-56
2023/11/01 09:01:22;;;;;;;20.90;9.90;;;;;;;16.91;58.05;98815.94;5114481;28;20425;-56
2023/11/01 09:03:47;;;;;;;14.00;8.52;;;;;;;16.90;58.19;98808.84;5114097;28;20023;-56
2023/11/01 09:06:13;;;;;;;16.92;8.60;;;;;;;16.89;58.35;98807.19;5114662;28;20483;-53
2023/11/01 09:08:38;;;;;;;13.82;8.45;;;;;;;16.96;57.84;98789.16;5113981;28;20038;-58
2023/11/01 09:11:04;;;;;;;15.40;9.23;;;;;;;16.99;57.42;98806.88;5114009;28;20452;-53
2023/11/01 09:13:30;;;;;;;14.48;9.05;;;;;;;16.95;57.97;98803.72;5113627;28;20051;-60
2023/11/01 09:15:56;;;;;;;17.55;9.23;;;;;;;17.04;57.63;98799.88;5114163;28;20088;-59
2023/11/01 09:18:21;;;;;;;19.85;9.25;;;;;;;17.00;57.91;98782.38;5114072;28;20031;-56
2023/11/01 09:20:48;;;;;;;20.30;9.70;;;;;;;16.87;57.83;98771.38;5114227;28;20320;-57
2023/11/01 09:23:14;;;;;;;14.32;9.02;;;;;;;16.80;58.14;98774.00;5113469;28;20027;-56
2023/11/01 09:25:40;;;;;;;20.60;8.20;;;;;;;16.66;58.55;98775.72;5112919;28;20047;-58
2023/11/01 09:28:05;;;;;;;16.23;8.43;;;;;;;16.55;58.96;98765.38;5113815;28;20114;-67
2023/11/01 09:30:31;;;;;;;14.82;8.82;;;;;;;16.54;58.89;98764.56;5112812;28;20419;-61
2023/11/01 09:32:56;;;;;;;14.68;8.43;;;;;;;16.50;59.06;98761.38;5113400;28;20031;-66
2023/11/01 09:35:22;;;;;;;17.85;8.40;;;;;;;16.50;59.34;98765.94;5113539;27;20123;-65
2023/11/01 09:37:48;;;;;;;15.10;8.73;;;;;;;16.57;58.99;98763.34;5113016;28;20032;-66
2023/11/01 09:40:14;;;;;;;19.50;8.57;;;;;;;16.52;59.02;98758.50;5113053;28;20036;-66
2023/11/01 09:42:40;;;;;;;14.15;8.50;;;;;;;16.52;59.39;98769.31;5113038;28;20046;-65
2023/11/01 09:45:10;;;;;;;15.00;8.43;;;;;;;16.59;59.20;98761.28;5112082;28;20027;-67
2023/11/01 09:47:39;;;;;;;15.85;8.88;;;;;;;16.62;59.23;98764.44;5112828;28;20040;-66
2023/11/01 09:50:08;;;;;;;17.75;8.50;;;;;;;16.75;58.88;98765.63;5114099;28;20089;-66
2023/11/01 09:52:35;;;;;;;13.63;8.30;;;;;;;16.72;58.42;98756.03;5112711;28;20023;-67
2023/11/01 09:55:02;;;;;;;15.32;8.45;;;;;;;16.07;58.98;98680.22;5113377;27;20027;-71
2023/11/01 09:57:30;;;;;;;15.75;7.90;;;;;;;16.56;59.09;98749.00;5109939;28;20028;-64
2023/11/01 09:59:56;;;;;;;14.40;8.38;;;;;;;16.60;59.26;98754.84;5110913;28;20511;-62
2023/11/01 10:02:22;;;;;;;16.42;8.05;;;;;;;16.67;58.92;98763.03;5111912;28;20059;-64
2023/11/01 10:04:50;;;;;;;14.82;8.20;;;;;;;16.72;59.00;98747.94;5092118;28;20024;-64
2023/11/01 10:07:15;;;;;;;17.77;8.35;;;;;;;16.85;58.32;98749.09;5094754;28;20070;-65
2023/11/01 10:09:41;;;;;;;18.65;7.18;;;;;;;16.90;58.29;98750.19;5113287;28;20075;-67
2023/11/01 10:12:08;;;;;;;13.30;7.55;;;;;;;16.68;58.56;98719.63;5113104;28;20058;-64
2023/11/01 10:14:36;;;;;;;14.55;7.90;;;;;;;16.83;58.37;98743.91;5112880;28;20024;-67
2023/11/01 10:17:03;;;;;;;16.00;7.60;;;;;;;16.74;58.55;98735.06;5108174;28;20035;-66
2023/11/01 10:19:29;;;;;;;16.85;7.82;;;;;;;16.69;58.96;98728.53;5110487;28;20027;-66
2023/11/01 10:21:55;;;;;;;12.05;7.50;;;;;;;16.67;59.21;98725.19;5111972;28;20036;-66
2023/11/01 10:24:28;;;;;;;10.27;7.20;;;;;;;16.64;59.15;98718.31;5112432;28;20042;-65
2023/11/01 10:26:57;;;;;;;14.90;7.88;;;;;;;16.64;59.14;98723.75;5112877;28;20048;-65
2023/11/01 10:29:24;;;;;;;13.90;6.97;;;;;;;16.64;59.17;98721.03;5112232;28;20419;-66
2023/11/01 10:31:54;;;;;;;12.70;7.07;;;;;;;16.70;59.17;98720.25;5112594;28;20028;-65
2023/11/01 10:34:26;;;;;;;13.77;7.13;;;;;;;16.68;59.09;98713.38;5112699;28;20039;-67
2023/11/01 10:36:53;;;;;;;11.73;6.93;;;;;;;16.67;59.23;98707.13;5113239;28;20032;-66
2023/11/01 10:39:19;;;;;;;18.23;7.60;;;;;;;16.69;59.11;98721.28;5111807;28;20477;-65
2023/11/01 10:41:48;;;;;;;13.45;7.28;;;;;;;16.79;58.78;98715.56;5112855;28;20055;-64
2023/11/01 10:44:17;;;;;;;17.35;7.45;;;;;;;16.68;58.77;98697.16;5112021;28;20019;-67
2023/11/01 10:46:43;;;;;;;13.45;6.88;;;;;;;16.77;58.53;98715.75;5112862;28;20044;-68
2023/11/01 10:49:13;;;;;;;15.98;7.55;;;;;;;16.84;58.82;98721.25;5112956;28;20570;-65
2023/11/01 10:51:39;;;;;;;15.75;7.20;;;;;;;16.83;58.47;98711.47;5111537;28;20296;-64
2023/11/01 10:54:07;;;;;;;16.40;7.15;;;;;;;16.82;58.58;98708.94;5112091;28;20031;-65
2023/11/01 10:56:33;;;;;;;12.32;6.78;;;;;;;16.85;58.56;98712.09;5112798;28;20070;-66
2023/11/01 10:59:07;;;;;;;11.95;6.97;;;;;;;16.90;58.39;98712.34;5111401;28;20059;-66
2023/11/01 11:01:49;;;;;;;13.27;7.07;;;;;;;17.02;58.29;98704.59;5112303;28;20337;-67
2023/11/01 11:04:30;;;;;;;11.93;7.22;;;;;;;16.97;58.43;98696.19;5112114;28;20035;-65
2023/11/01 11:07:05;;;;;;;14.57;6.15;;;;;;;17.01;57.93;98700.22;5112533;28;20038;-66
2023/11/01 11:09:30;;;;;;;17.67;7.27;;;;;;;17.01;58.07;98702.94;5112010;28;20049;-66
2023/11/01 11:12:15;;;;;;;15.13;6.45;;;;;;;17.17;57.86;98693.69;5110828;28;20039;-65
2023/11/01 11:14:43;;;;;;;11.18;6.22;;;;;;;17.13;57.46;98700.53;5092247;28;20553;-66
2023/11/01 11:17:12;;;;;;;16.55;6.63;;;;;;;17.14;57.09;98687.88;5107588;28;20027;-66
2023/11/01 11:20:11;;;;;;;14.45;6.00;;;;;;;17.27;57.44;98687.97;5112214;28;20035;-64